Time;durP1;ratioP1;P1;durP2;ratioP2;P2;SDS_P1;SDS_P2;PMS_P1;PMS_P2;Temp;Humidity;BMP_temperature;BMP_pressure;BME280_temperature;BME280_humidity;BME280_pressure;Samples;Min_cycle;Max_cycle;Signal;HPM_P1;HPM_P2
2023/01/12 00:01:07;;;;;;;4.17;3.00;;;3.40;99.90;4.10;97012.00;;;;5098225;28;20514;-84
2023/01/12 00:03:56;;;;;;;4.60;2.17;;;3.40;99.90;3.80;96999.00;;;;5095475;28;20417;-84
2023/01/12 00:06:46;;;;;;;3.30;2.40;;;3.20;99.90;3.90;97009.00;;;;5097615;28;20552;-83
2023/01/12 00:09:35;;;;;;;3.53;1.90;;;3.30;99.90;4.10;97008.00;;;;5090492;28;20950;-84
2023/01/12 00:12:23;;;;;;;2.33;2.13;;;3.20;99.90;4.10;97007.00;;;;5098058;28;20440;-83
2023/01/12 00:15:14;;;;;;;3.97;2.27;;;3.20;99.90;4.40;97021.00;;;;5087621;28;20418;-84
2023/01/12 00:18:02;;;;;;;3.70;2.70;;;3.20;99.90;4.70;97010.00;;;;5097558;28;20473;-84
2023/01/12 00:20:51;;;;;;;3.80;2.13;;;3.30;99.90;4.40;97018.00;;;;5097722;28;20431;-83
2023/01/12 00:23:41;;;;;;;5.07;2.70;;;3.30;99.90;4.40;97021.00;;;;5098220;28;20919;-83
2023/01/12 00:26:30;;;;;;;6.80;2.70;;;3.50;99.90;4.50;97017.00;;;;5091093;28;20967;-83
2023/01/12 00:29:19;;;;;;;3.20;2.20;;;3.40;99.90;4.90;97019.00;;;;5101621;28;20829;-83
2023/01/12 00:32:12;;;;;;;3.50;2.00;;;3.80;99.90;5.00;97029.00;;;;5098946;28;20436;-83
2023/01/12 00:35:01;;;;;;;3.13;2.20;;;3.60;99.90;4.90;97033.00;;;;5098228;28;20429;-84
2023/01/12 00:37:50;;;;;;;3.40;2.37;;;3.60;99.90;4.80;97042.00;;;;5085672;28;20445;-84
2023/01/12 00:40:39;;;;;;;2.70;2.00;;;3.60;99.90;4.40;97032.00;;;;5098633;28;20817;-83
2023/01/12 00:46:33;;;;;;;1.83;1.70;;;3.50;99.90;4.30;97039.00;;;;5091195;28;20440;-84
2023/01/12 00:49:24;;;;;;;3.37;2.10;;;3.50;99.90;4.50;97045.00;;;;5097809;28;20438;-84
2023/01/12 00:52:16;;;;;;;6.17;2.27;;;3.40;99.90;4.50;97042.00;;;;5098569;28;20479;-83
2023/01/12 00:55:17;;;;;;;3.53;1.87;;;3.40;99.90;4.30;97053.00;;;;5096788;28;20775;-83
2023/01/12 00:58:06;;;;;;;4.27;2.23;;;4.30;99.90;4.50;97056.00;;;;5096431;28;20602;-84
2023/01/12 01:00:54;;;;;;;3.60;2.20;;;3.30;99.90;4.60;97060.00;;;;5097849;28;20463;-83
2023/01/12 01:03:43;;;;;;;3.20;2.23;;;3.30;99.90;4.40;97044.00;;;;5087665;28;20430;-83
2023/01/12 01:06:33;;;;;;;3.33;2.90;;;3.40;99.90;4.40;97051.00;;;;5096872;28;20484;-84
2023/01/12 01:09:22;;;;;;;3.67;2.23;;;3.30;99.90;4.60;97063.00;;;;5096605;28;20422;-84
2023/01/12 01:12:11;;;;;;;4.20;2.63;;;3.40;99.90;4.40;97059.00;;;;5090564;28;20814;-84
2023/01/12 01:14:59;;;;;;;7.37;2.73;;;3.30;99.90;4.50;97059.00;;;;5092609;28;20441;-84
2023/01/12 01:17:48;;;;;;;5.47;2.83;;;3.30;99.90;4.50;97058.00;;;;5093818;28;20450;-84
2023/01/12 01:20:37;;;;;;;4.63;2.93;;;3.30;99.90;4.60;97054.00;;;;5093716;28;20860;-84
2023/01/12 01:23:29;;;;;;;2.90;2.00;;;3.40;99.90;4.50;97055.00;;;;5094423;28;20422;-84
2023/01/12 01:26:21;;;;;;;2.20;2.00;;;3.70;99.90;4.30;97057.00;;;;5099332;28;20453;-84
2023/01/12 01:29:10;;;;;;;2.60;2.07;;;3.40;99.90;4.20;97052.00;;;;5098351;28;20475;-84
2023/01/12 01:31:59;;;;;;;5.97;1.60;;;3.40;99.90;4.30;97053.00;;;;5096954;28;20526;-84
2023/01/12 01:34:47;;;;;;;3.17;2.13;;;3.40;99.90;3.90;97046.00;;;;5089002;28;20482;-84
2023/01/12 01:37:36;;;;;;;3.87;2.00;;;3.30;99.90;4.10;97047.00;;;;5097306;28;20454;-84
2023/01/12 01:40:26;;;;;;;2.87;2.33;;;3.20;99.90;4.10;97048.00;;;;5098278;28;20429;-84
2023/01/12 01:43:18;;;;;;;3.73;2.30;;;3.20;99.90;4.40;97056.00;;;;5099464;28;20425;-84
2023/01/12 01:46:12;;;;;;;4.03;2.33;;;3.20;99.90;4.50;97053.00;;;;5106981;28;21027;-83
2023/01/12 01:49:19;;;;;;;4.43;1.90;;;3.50;99.90;4.40;97053.00;;;;5097770;28;20477;-84
2023/01/12 01:52:12;;;;;;;4.43;1.83;;;3.20;99.90;4.40;97059.00;;;;5097636;28;20425;-84
2023/01/12 01:55:06;;;;;;;4.43;2.27;;;3.20;99.90;4.20;97061.00;;;;5097515;28;20976;-84
2023/01/12 01:57:59;;;;;;;2.60;1.73;;;3.20;99.90;4.20;97067.00;;;;5097006;28;20472;-84
2023/01/12 02:00:48;;;;;;;1.57;1.23;;;3.20;99.90;4.30;97065.00;;;;5097433;28;20498;-84
2023/01/12 02:03:37;;;;;;;3.20;2.30;;;3.10;99.90;3.90;97065.00;;;;5088250;28;20421;-84
2023/01/12 02:06:27;;;;;;;2.27;1.33;;;3.10;99.90;3.60;97062.00;;;;5096879;28;20542;-84
2023/01/12 02:09:22;;;;;;;1.63;1.53;;;3.00;99.90;3.60;97065.00;;;;5095134;28;20464;-84
2023/01/12 02:18:43;;;;;;;1.73;1.60;;;2.80;99.90;4.30;97085.00;;;;5006997;28;20433;-84
2023/01/12 02:22:27;;;;;;;2.60;1.97;;;2.90;99.90;4.40;97075.00;;;;5095011;28;20422;-84
2023/01/12 02:25:56;;;;;;;5.07;2.50;;;3.00;99.90;4.10;97077.00;;;;5068226;28;20456;-84
2023/01/12 02:29:47;;;;;;;2.83;1.83;;;3.00;99.90;4.10;97087.00;;;;5074418;28;20558;-84
2023/01/12 02:32:48;;;;;;;2.80;1.57;;;3.00;99.90;4.10;97084.00;;;;5030485;28;20421;-83
2023/01/12 02:35:47;;;;;;;7.53;1.73;;;3.00;99.90;3.70;97081.00;;;;5033508;28;20554;-84
2023/01/12 02:38:43;;;;;;;3.53;1.93;;;3.00;99.90;3.80;97073.00;;;;5096908;28;20453;-83
2023/01/12 02:44:55;;;;;;;3.33;2.27;;;2.80;99.90;4.10;97085.00;;;;5116467;28;20459;-83
2023/01/12 02:47:55;;;;;;;2.50;1.40;;;2.80;99.90;3.90;97075.00;;;;5098854;28;20542;-83
2023/01/12 02:50:51;;;;;;;1.87;1.70;;;2.90;99.90;4.00;97080.00;;;;5111239;28;20422;-83
2023/01/12 02:53:44;;;;;;;4.03;1.63;;;3.00;99.90;3.80;97081.00;;;;5111385;28;20438;-83
2023/01/12 02:56:38;;;;;;;1.60;1.23;;;2.90;99.90;4.00;97092.00;;;;5110961;28;20453;-83
2023/01/12 02:59:31;;;;;;;3.70;1.90;;;2.80;99.90;4.00;97092.00;;;;5110482;28;20430;-83
2023/01/12 03:02:22;;;;;;;2.90;1.80;;;2.80;99.90;3.90;97084.00;;;;5108249;28;20510;-84
2023/01/12 03:05:12;;;;;;;7.77;2.23;;;2.80;99.90;3.70;97079.00;;;;5097511;28;20515;-84
2023/01/12 03:08:04;;;;;;;1.63;1.40;;;2.90;99.90;3.60;97069.00;;;;5100353;28;20487;-83
2023/01/12 03:11:10;;;;;;;3.00;1.87;;;2.70;99.90;3.50;97064.00;;;;5100577;28;20503;-84
2023/01/12 03:14:03;;;;;;;2.10;1.80;;;2.70;99.90;3.50;97060.00;;;;5093017;28;20942;-84
2023/01/12 03:16:52;;;;;;;3.03;2.10;;;2.70;99.90;3.70;97075.00;;;;5100603;28;20438;-84
2023/01/12 03:19:43;;;;;;;3.00;1.73;;;2.70;99.90;3.30;97072.00;;;;5099320;28;20459;-83
2023/01/12 03:22:36;;;;;;;2.20;2.00;;;2.60;99.90;3.20;97070.00;;;;5099074;28;20430;-83
2023/01/12 03:25:26;;;;;;;3.00;1.87;;;2.50;99.90;3.20;97075.00;;;;5099779;28;20839;-83
2023/01/12 03:28:19;;;;;;;2.30;1.40;;;2.50;99.90;3.00;97064.00;;;;5095595;28;21001;-84
2023/01/12 03:31:11;;;;;;;2.73;2.13;;;2.40;99.90;3.10;97072.00;;;;5098639;28;20429;-83
2023/01/12 03:34:01;;;;;;;3.77;1.73;;;2.40;99.90;3.30;97072.00;;;;5094506;28;20433;-83
2023/01/12 03:36:58;;;;;;;2.10;1.90;;;2.50;99.90;3.70;97063.00;;;;5099665;28;20458;-83
2023/01/12 03:39:58;;;;;;;2.37;2.07;;;2.40;99.90;3.80;97074.00;;;;5099019;28;20429;-83
2023/01/12 03:42:56;;;;;;;1.70;1.60;;;2.60;99.90;3.80;97076.00;;;;5093625;28;20438;-83
2023/01/12 03:45:49;;;;;;;8.60;1.60;;;2.60;99.90;3.80;97076.00;;;;5097618;28;20422;-83
2023/01/12 03:48:43;;;;;;;1.30;1.20;;;2.60;99.90;3.60;97083.00;;;;5094025;28;21047;-83
2023/01/12 03:51:36;;;;;;;2.20;1.67;;;2.60;99.90;3.80;97090.00;;;;5098288;28;21007;-83
2023/01/12 03:54:27;;;;;;;4.83;1.83;;;2.80;99.90;3.60;97085.00;;;;5097822;28;20430;-83
2023/01/12 03:57:18;;;;;;;4.47;1.90;;;2.70;99.90;3.90;97105.00;;;;5085147;28;20437;-83
2023/01/12 04:00:11;;;;;;;2.47;2.17;;;2.70;99.90;4.00;97099.00;;;;5097967;28;20495;-83
2023/01/12 04:03:04;;;;;;;1.87;1.70;;;2.80;99.90;4.10;97107.00;;;;5097128;28;20449;-83
2023/01/12 04:05:53;;;;;;;1.67;1.50;;;2.80;99.90;3.90;97103.00;;;;5097550;28;20440;-83
2023/01/12 04:08:42;;;;;;;2.30;1.53;;;2.80;99.90;3.30;97094.00;;;;5083769;28;20450;-83
2023/01/12 04:14:39;;;;;;;2.30;2.07;;;2.60;99.90;3.50;97105.00;;;;5091595;28;20478;-83
2023/01/12 04:17:28;;;;;;;3.43;1.80;;;2.50;99.90;3.40;97109.00;;;;5098006;28;20458;-83
2023/01/12 04:20:17;;;;;;;2.60;1.93;;;2.50;99.90;3.30;97125.00;;;;5098064;28;20425;-83
2023/01/12 04:23:06;;;;;;;2.23;2.03;;;2.50;99.90;3.30;97123.00;;;;5096533;28;20930;-83
2023/01/12 04:25:54;;;;;;;3.67;1.50;;;2.50;99.90;3.10;97123.00;;;;5097033;28;20451;-83
2023/01/12 04:28:43;;;;;;;1.30;1.20;;;2.40;99.90;3.20;97117.00;;;;5092861;28;20548;-83
2023/01/12 04:31:33;;;;;;;3.50;2.03;;;2.30;99.90;3.60;97122.00;;;;5098447;28;20479;-83
2023/01/12 04:34:22;;;;;;;2.80;2.10;;;3.20;99.90;3.70;97135.00;;;;5098809;28;20441;-83
2023/01/12 04:37:11;;;;;;;3.07;1.83;;;2.40;99.90;3.70;97138.00;;;;5098481;28;20840;-83
2023/01/12 04:39:59;;;;;;;2.93;1.50;;;2.50;99.90;3.20;97140.00;;;;5087995;28;20443;-83
2023/01/12 04:43:03;;;;;;;3.13;1.87;;;3.50;99.90;2.90;97137.00;;;;5091607;28;20421;-83
2023/01/12 04:45:55;;;;;;;3.27;2.43;;;2.40;99.90;3.40;97145.00;;;;5098281;28;20948;-83
2023/01/12 04:48:45;;;;;;;1.77;1.67;;;2.20;99.90;3.80;97160.00;;;;5096599;28;20499;-83
2023/01/12 04:51:34;;;;;;;2.90;2.17;;;2.60;99.90;3.80;97147.00;;;;5096311;28;20433;-86
2023/01/12 04:54:22;;;;;;;5.50;2.00;;;2.40;99.90;3.80;97155.00;;;;5096436;28;20425;-83
2023/01/12 04:57:11;;;;;;;3.37;2.53;;;2.80;99.90;3.60;97148.00;;;;5089173;28;20461;-83
2023/01/12 05:00:00;;;;;;;3.80;1.83;;;2.50;99.90;3.50;97147.00;;;;5097545;28;20436;-83
2023/01/12 05:02:49;;;;;;;3.73;2.00;;;2.40;99.90;3.30;97133.00;;;;5085593;28;20424;-82
2023/01/12 05:05:39;;;;;;;5.37;2.60;;;2.40;99.90;3.40;97141.00;;;;5099279;28;20441;-83
2023/01/12 05:11:45;;;;;;;2.50;1.83;;;2.20;99.90;2.60;97137.00;;;;5038362;28;20530;-83
2023/01/12 05:14:34;;;;;;;5.30;2.07;;;2.00;99.90;2.80;97146.00;;;;5105836;28;20467;-83
2023/01/12 05:17:22;;;;;;;2.33;1.83;;;2.00;99.90;2.90;97138.00;;;;5086187;28;20457;-83
2023/01/12 05:20:12;;;;;;;1.40;1.30;;;2.10;99.90;2.80;97139.00;;;;5094608;28;20426;-85
2023/01/12 05:23:02;;;;;;;2.80;1.43;;;1.90;99.90;2.60;97135.00;;;;5088381;28;20429;-86
2023/01/12 05:25:51;;;;;;;9.03;1.97;;;1.80;99.90;2.90;97142.00;;;;5098923;28;20941;-85
2023/01/12 05:28:39;;;;;;;3.50;1.73;;;0.90;99.90;3.00;97142.00;;;;5096705;28;20470;-86
2023/01/12 05:31:28;;;;;;;3.83;2.20;;;1.90;99.90;3.00;97158.00;;;;5093296;28;20537;-85
2023/01/12 05:34:18;;;;;;;12.93;1.93;;;2.30;99.90;2.70;97150.00;;;;5093600;28;20425;-85
2023/01/12 05:37:07;;;;;;;2.60;1.63;;;1.90;99.90;2.60;97159.00;;;;5097315;28;20460;-85
2023/01/12 05:39:57;;;;;;;4.73;1.57;;;1.80;99.90;2.80;97158.00;;;;5089756;28;20845;-85
2023/01/12 05:45:52;;;;;;;2.17;1.90;;;1.70;99.90;2.90;97146.00;;;;5094807;28;20498;-85
2023/01/12 05:48:40;;;;;;;2.23;1.30;;;1.70;99.90;2.20;97149.00;;;;5096236;28;20429;-83
2023/01/12 05:51:30;;;;;;;3.20;1.90;;;1.70;99.90;2.30;97151.00;;;;5093154;28;20430;-85
2023/01/12 05:54:19;;;;;;;2.70;1.00;;;1.60;99.90;2.40;97168.00;;;;5093923;28;20437;-85
2023/01/12 05:57:09;;;;;;;1.73;1.57;;;1.70;99.90;2.60;97181.00;;;;5079629;28;20640;-85
2023/01/12 05:59:58;;;;;;;1.50;1.17;;;1.50;99.90;2.50;97176.00;;;;5092116;28;20430;-86
2023/01/12 06:02:47;;;;;;;2.10;1.20;;;1.60;99.90;2.60;97172.00;;;;5091074;28;20784;-85
2023/01/12 06:05:35;;;;;;;1.97;1.70;;;2.60;99.90;3.20;97161.00;;;;5094713;28;20458;-85
2023/01/12 06:08:25;;;;;;;4.43;1.70;;;1.80;99.90;3.20;97170.00;;;;5091448;28;20426;-85
2023/01/12 06:14:18;;;;;;;4.67;2.87;;;1.90;99.90;2.60;97170.00;;;;5088936;28;20437;-85
2023/01/12 06:17:07;;;;;;;3.67;2.00;;;2.20;99.90;2.20;97178.00;;;;5093233;28;20450;-85
2023/01/12 06:19:55;;;;;;;2.30;2.10;;;1.70;99.90;2.30;97184.00;;;;5092846;28;20437;-85
2023/01/12 06:22:44;;;;;;;1.70;1.50;;;1.40;99.90;2.30;97189.00;;;;5089943;28;20445;-85
2023/01/12 06:25:33;;;;;;;1.37;1.27;;;1.60;99.90;2.00;97188.00;;;;5086229;28;20414;-84
2023/01/12 06:28:22;;;;;;;2.27;1.17;;;1.40;99.90;1.80;97191.00;;;;5085908;28;20456;-85
2023/01/12 06:31:14;;;;;;;1.57;1.07;;;1.40;99.90;1.60;97190.00;;;;5090035;28;20530;-85
2023/01/12 06:34:03;;;;;;;2.57;1.97;;;1.20;99.90;1.80;97194.00;;;;5094728;28;20429;-85
2023/01/12 06:36:51;;;;;;;4.07;2.47;;;1.40;99.90;2.20;97198.00;;;;5093579;28;20978;-85
2023/01/12 06:39:40;;;;;;;2.83;2.07;;;1.50;99.90;2.50;97187.00;;;;5088082;28;20645;-85
2023/01/12 06:42:29;;;;;;;9.00;5.67;;;1.20;99.90;2.10;97177.00;;;;5095203;28;20476;-85
2023/01/12 06:45:18;;;;;;;0.83;0.83;;;1.60;99.90;1.10;97183.00;;;;5098449;28;20418;-85
2023/01/12 06:48:08;;;;;;;6.70;3.83;;;1.10;99.90;1.80;97201.00;;;;5098766;28;20472;-85
2023/01/12 06:51:01;;;;;;;8.87;3.47;;;1.30;99.90;1.90;97196.00;;;;5088044;28;20483;-85
2023/01/12 06:53:50;;;;;;;6.67;4.10;;;0.90;99.90;2.00;97213.00;;;;5085912;28;20450;-85
2023/01/12 06:56:39;;;;;;;2.80;2.17;;;1.00;99.90;1.40;97192.00;;;;5091526;28;20446;-84
2023/01/12 06:59:27;;;;;;;2.60;2.23;;;0.90;99.90;1.40;97190.00;;;;5083598;28;20422;-84
2023/01/12 07:02:17;;;;;;;2.43;2.20;;;0.90;99.90;1.70;97203.00;;;;5086558;28;20542;-85
2023/01/12 07:05:08;;;;;;;4.53;2.13;;;1.10;99.90;2.00;97210.00;;;;5091431;28;20433;-84
2023/01/12 07:08:00;;;;;;;15.23;6.53;;;0.90;99.90;2.20;97214.00;;;;5093898;28;20457;-85
2023/01/12 07:10:48;;;;;;;4.67;3.70;;;0.90;99.90;2.20;97221.00;;;;5081585;28;20469;-84
2023/01/12 07:13:37;;;;;;;6.57;3.87;;;1.20;99.90;2.00;97225.00;;;;5093993;28;20430;-84
2023/01/12 07:16:26;;;;;;;5.17;3.30;;;1.00;99.90;1.90;97230.00;;;;5091227;28;20811;-84
2023/01/12 07:19:15;;;;;;;3.80;3.30;;;1.10;99.90;2.20;97226.00;;;;5093624;28;20441;-85
2023/01/12 07:22:05;;;;;;;5.33;3.10;;;1.00;99.90;2.30;97224.00;;;;5091392;28;20433;-84
2023/01/12 07:24:53;;;;;;;7.17;4.70;;;1.10;99.90;2.10;97219.00;;;;5090766;28;20430;-84
2023/01/12 07:27:49;;;;;;;3.37;2.00;;;1.10;99.90;1.50;97204.00;;;;5093087;28;20968;-84
2023/01/12 07:30:38;;;;;;;6.33;2.80;;;1.00;99.90;1.60;97213.00;;;;5087202;28;20468;-84
2023/01/12 07:33:27;;;;;;;2.73;2.30;;;1.00;99.90;1.70;97222.00;;;;5090032;28;21011;-84
2023/01/12 07:36:15;;;;;;;9.53;2.60;;;1.10;99.90;1.80;97223.00;;;;5092705;28;20449;-84
2023/01/12 07:39:07;;;;;;;10.80;2.40;;;1.00;99.90;1.90;97237.00;;;;5091839;28;20789;-84
2023/01/12 07:45:02;;;;;;;3.13;1.93;;;1.00;99.90;2.00;97244.00;;;;5093886;28;20430;-84
2023/01/12 07:47:53;;;;;;;2.73;2.20;;;1.10;99.90;2.50;97244.00;;;;5082375;28;20445;-84
2023/01/12 07:50:42;;;;;;;3.73;2.27;;;1.40;99.90;2.80;97242.00;;;;5097373;28;20508;-84
2023/01/12 07:53:30;;;;;;;3.03;2.83;;;1.50;99.90;2.70;97235.00;;;;5095069;28;20441;-84
2023/01/12 07:56:20;;;;;;;4.33;2.77;;;1.40;99.90;2.70;97228.00;;;;5097243;28;20530;-83
2023/01/12 07:59:09;;;;;;;6.60;3.50;;;1.50;99.90;2.20;97224.00;;;;5087326;28;20441;-83
2023/01/12 08:01:58;;;;;;;5.47;3.60;;;1.50;99.90;2.00;97219.00;;;;5094045;28;20449;-83
2023/01/12 08:04:47;;;;;;;6.90;2.97;;;1.30;99.90;2.10;97223.00;;;;5094486;28;20424;-83
2023/01/12 08:07:36;;;;;;;3.33;2.20;;;1.30;99.90;2.30;97220.00;;;;5096675;28;20437;-83
2023/01/12 08:10:24;;;;;;;2.93;1.93;;;1.30;99.90;2.00;97214.00;;;;5097956;28;20518;-83
2023/01/12 08:13:14;;;;;;;4.53;2.37;;;1.30;99.90;2.50;97212.00;;;;5095413;28;20511;-83
2023/01/12 08:16:11;;;;;;;5.20;3.13;;;1.30;99.90;2.70;97208.00;;;;5093730;28;20461;-83
2023/01/12 08:19:03;;;;;;;6.60;2.57;;;1.50;99.90;2.40;97222.00;;;;5096029;28;21078;-83
2023/01/12 08:21:57;;;;;;;5.67;3.10;;;1.60;99.90;2.00;97208.00;;;;5082118;28;20437;-83
2023/01/12 08:24:51;;;;;;;3.27;2.27;;;1.70;99.90;1.90;97232.00;;;;5100835;28;20416;-82
2023/01/12 08:27:46;;;;;;;2.97;2.10;;;1.40;99.90;2.10;97231.00;;;;5092060;28;20441;-82
2023/01/12 08:30:36;;;;;;;4.23;2.00;;;1.40;99.90;2.20;97230.00;;;;5092799;28;20461;-82
2023/01/12 08:33:26;;;;;;;2.97;2.47;;;1.50;99.90;2.90;97238.00;;;;5097562;28;20429;-83
2023/01/12 08:36:17;;;;;;;3.00;2.70;;;1.50;99.90;3.30;97233.00;;;;5095545;28;20453;-83
2023/01/12 08:39:06;;;;;;;3.67;2.53;;;1.80;99.90;3.10;97228.00;;;;5101066;28;20941;-83
2023/01/12 08:41:55;;;;;;;3.80;2.47;;;2.00;99.90;2.90;97227.00;;;;5096576;28;20448;-83
2023/01/12 08:44:43;;;;;;;2.13;1.90;;;1.90;99.90;2.80;97221.00;;;;5104484;28;20429;-82
2023/01/12 08:47:34;;;;;;;2.27;1.90;;;1.90;99.90;3.30;97241.00;;;;5088463;28;20510;-83
2023/01/12 08:50:23;;;;;;;5.00;3.43;;;2.00;99.90;3.30;97258.00;;;;5100474;28;20914;-82
2023/01/12 08:53:11;;;;;;;4.57;2.43;;;2.20;99.90;3.50;97258.00;;;;5097087;28;20437;-82
2023/01/12 08:56:00;;;;;;;4.57;3.13;;;2.30;99.90;3.80;97257.00;;;;5087762;28;20422;-83
2023/01/12 08:58:49;;;;;;;5.10;3.37;;;2.50;99.90;4.40;97253.00;;;;5086752;28;20429;-82
2023/01/12 09:01:38;;;;;;;8.43;4.20;;;2.60;99.90;4.70;97261.00;;;;5098651;27;20489;-82
2023/01/12 09:04:29;;;;;;;7.17;3.10;;;2.80;99.90;4.80;97268.00;;;;5101475;28;20425;-82
2023/01/12 09:07:18;;;;;;;8.93;4.13;;;3.20;99.90;4.90;97270.00;;;;5099219;28;20454;-83
2023/01/12 09:10:09;;;;;;;6.50;4.03;;;3.40;99.90;5.30;97256.00;;;;5101410;28;20429;-83
2023/01/12 09:12:58;;;;;;;5.87;4.30;;;3.70;99.90;5.50;97252.00;;;;5097130;28;20452;-83
2023/01/12 09:15:46;;;;;;;6.50;3.73;;;4.00;99.90;5.80;97241.00;;;;5100687;28;21046;-82
2023/01/12 09:18:49;;;;;;;5.93;4.07;;;4.20;99.90;6.20;97249.00;;;;5101487;28;20201;-84
2023/01/12 09:21:41;;;;;;;8.07;3.67;;;4.50;99.90;5.30;97257.00;;;;5075746;28;20441;-84
2023/01/12 09:24:29;;;;;;;5.60;3.53;;;4.60;99.90;5.60;97264.00;;;;5089497;28;20248;-83
2023/01/12 09:27:18;;;;;;;7.63;2.90;;;4.60;99.90;5.70;97269.00;;;;5099914;28;20222;-83
2023/01/12 09:30:09;;;;;;;6.33;3.27;;;4.60;99.90;5.80;97257.00;;;;5101066;28;20665;-83
2023/01/12 09:32:57;;;;;;;6.07;3.63;;;4.60;99.90;6.30;97256.00;;;;5095742;28;20315;-82
2023/01/12 09:35:46;;;;;;;10.93;3.43;;;4.70;99.90;6.40;97257.00;;;;5092080;28;20196;-83
2023/01/12 09:38:37;;;;;;;5.97;4.07;;;4.90;99.90;6.70;97257.00;;;;5093914;28;20199;-83
2023/01/12 09:47:55;;;;;;;10.47;3.43;;;5.50;99.90;7.30;97233.00;;;;5091710;28;20268;-83
2023/01/12 09:50:51;;;;;;;5.13;3.03;;;5.60;99.90;8.10;97238.00;;;;5081349;28;20209;-83
2023/01/12 09:53:42;;;;;;;7.70;4.13;;;5.90;99.90;8.40;97254.00;;;;5094567;28;20241;-84
2023/01/12 09:56:38;;;;;;;5.90;4.10;;;6.30;99.90;8.50;97246.00;;;;5097907;28;20215;-84
2023/01/12 09:59:51;;;;;;;4.70;3.30;;;6.50;99.90;8.10;97242.00;;;;5097342;28;20199;-83
2023/01/12 10:02:46;;;;;;;8.47;4.33;;;6.70;99.90;8.30;97241.00;;;;5096130;28;20199;-84
2023/01/12 10:05:44;;;;;;;9.87;3.60;;;6.80;99.90;8.60;97246.00;;;;5091868;28;20210;-83
2023/01/12 10:08:37;;;;;;;5.10;3.67;;;6.90;99.90;8.80;97235.00;;;;5094936;28;20678;-84
2023/01/12 10:11:34;;;;;;;9.73;5.23;;;7.10;99.90;9.10;97247.00;;;;5094824;28;20219;-84
2023/01/12 10:15:06;;;;;;;7.00;5.30;;;7.20;99.90;9.30;97245.00;;;;5084637;28;20218;-83
2023/01/12 10:18:02;;;;;;;11.37;5.83;;;7.50;99.90;9.10;97241.00;;;;5093861;28;20692;-83
2023/01/12 10:20:59;;;;;;;9.47;7.07;;;7.60;99.90;9.50;97232.00;;;;5098391;28;20618;-83
2023/01/12 10:23:48;;;;;;;15.87;7.87;;;7.70;99.90;9.20;97244.00;;;;5093258;28;20199;-84
2023/01/12 10:26:43;;;;;;;13.37;7.53;;;7.80;99.90;9.20;97240.00;;;;5096679;28;20220;-84
2023/01/12 10:29:32;;;;;;;6.50;4.50;;;7.90;99.90;9.40;97236.00;;;;5097390;28;20201;-83
2023/01/12 10:32:21;;;;;;;9.40;3.50;;;7.90;99.90;9.50;97241.00;;;;5096109;28;20216;-83
2023/01/12 10:35:17;;;;;;;10.97;3.77;;;8.00;99.90;9.50;97241.00;;;;5102153;28;20590;-84
2023/01/12 10:38:21;;;;;;;10.00;3.50;;;8.10;99.90;9.50;97229.00;;;;5090603;28;20651;-84
2023/01/12 10:41:17;;;;;;;4.67;2.87;;;8.10;99.90;9.90;97240.00;;;;5086229;28;20683;-83
2023/01/12 10:44:17;;;;;;;12.23;3.63;;;8.20;99.90;10.30;97234.00;;;;5097048;28;20210;-83
2023/01/12 10:47:10;;;;;;;7.53;2.93;;;8.40;99.90;10.30;97244.00;;;;5094356;28;20699;-83
2023/01/12 10:50:21;;;;;;;6.83;3.20;;;8.60;99.90;10.70;97228.00;;;;5096249;28;20192;-84
2023/01/12 10:53:15;;;;;;;8.30;3.20;;;8.80;99.90;11.00;97240.00;;;;5093722;28;20223;-84
2023/01/12 10:56:22;;;;;;;8.20;3.27;;;9.10;99.90;11.20;97235.00;;;;5096804;28;20196;-84
2023/01/12 10:59:21;;;;;;;3.70;2.43;;;9.40;99.90;11.30;97218.00;;;;5093440;28;20202;-84
2023/01/12 11:02:15;;;;;;;5.80;3.10;;;9.70;99.90;10.90;97226.00;;;;5089024;28;20617;-83
2023/01/12 11:05:30;;;;;;;6.83;2.57;;;9.80;99.90;11.10;97213.00;;;;5088232;28;20199;-84
2023/01/12 11:08:23;;;;;;;7.50;3.30;;;9.90;99.90;11.40;97215.00;;;;5086244;28;20602;-84
2023/01/12 11:11:25;;;;;;;6.60;2.93;;;10.10;99.90;11.70;97212.00;;;;5083583;28;20593;-84
2023/01/12 11:14:26;;;;;;;7.67;4.07;;;10.40;99.90;12.20;97207.00;;;;5085619;28;20695;-84
2023/01/12 11:17:35;;;;;;;12.10;3.57;;;11.00;99.90;12.60;97207.00;;;;5092759;28;20230;-84
2023/01/12 11:20:30;;;;;;;9.97;3.33;;;11.40;99.90;13.10;97207.00;;;;5096381;28;20207;-84
2023/01/12 11:23:30;;;;;;;6.97;3.10;;;11.80;99.90;13.70;97193.00;;;;5095961;28;20616;-84
2023/01/12 11:26:22;;;;;;;8.43;3.03;;;12.20;99.90;14.30;97189.00;;;;5095675;28;20584;-85
2023/01/12 11:29:35;;;;;;;9.30;2.80;;;13.60;99.90;14.60;97183.00;;;;5095055;28;20449;-84
2023/01/12 11:32:33;;;;;;;9.97;3.53;;;13.50;99.20;15.10;97178.00;;;;5095119;28;20272;-84
2023/01/12 11:35:33;;;;;;;2.90;2.60;;;14.00;96.30;15.30;97169.00;;;;5093652;28;20260;-84
2023/01/12 11:38:27;;;;;;;4.37;2.17;;;14.50;92.80;15.70;97168.00;;;;5094429;28;20203;-85
2023/01/12 11:41:25;;;;;;;3.47;2.30;;;14.90;90.80;15.50;97164.00;;;;5094517;28;20203;-84
2023/01/12 11:44:22;;;;;;;6.23;3.63;;;15.00;88.50;15.40;97171.00;;;;5093792;28;20207;-84
2023/01/12 11:47:15;;;;;;;2.63;1.80;;;15.10;88.30;15.90;97160.00;;;;5095176;28;20597;-84
2023/01/12 11:50:14;;;;;;;2.53;2.30;;;15.30;83.10;16.60;97162.00;;;;5091887;28;20280;-84
2023/01/12 11:53:04;;;;;;;4.40;1.30;;;15.60;81.40;16.90;97149.00;;;;5090269;28;20248;-85
2023/01/12 11:56:14;;;;;;;3.63;2.67;;;15.90;79.70;17.50;97157.00;;;;5090407;28;20651;-84
2023/01/12 11:59:13;;;;;;;3.07;1.43;;;16.10;78.60;17.70;97162.00;;;;5091497;28;20199;-85
2023/01/12 12:02:18;;;;;;;3.33;1.53;;;16.50;75.40;16.70;97171.00;;;;5091325;28;20219;-85
2023/01/12 12:05:25;;;;;;;3.83;1.40;;;16.20;70.60;15.70;97164.00;;;;5089837;28;20584;-85
2023/01/12 12:08:30;;;;;;;2.33;1.00;;;15.60;68.90;16.20;97162.00;;;;5083113;28;20195;-84
2023/01/12 12:11:27;;;;;;;3.70;2.60;;;15.00;73.60;15.70;97161.00;;;;5087675;28;20192;-84
2023/01/12 12:14:37;;;;;;;3.17;1.43;;;14.80;70.50;15.40;97158.00;;;;5082868;28;20210;-85
2023/01/12 12:17:38;;;;;;;2.73;1.10;;;14.50;70.60;15.50;97158.00;;;;5084669;28;20630;-84
2023/01/12 12:20:35;;;;;;;2.17;1.10;;;14.20;71.50;15.90;97149.00;;;;5084829;28;20201;-84
2023/01/12 12:23:32;;;;;;;1.50;0.80;;;14.10;72.00;15.50;97143.00;;;;5090259;28;20223;-84
2023/01/12 12:26:28;;;;;;;3.07;1.10;;;14.10;68.90;15.30;97144.00;;;;5079593;28;20234;-84
2023/01/12 12:29:37;;;;;;;1.00;0.70;;;13.90;67.20;15.10;97135.00;;;;5092994;28;20288;-84
2023/01/12 12:32:40;;;;;;;3.83;1.20;;;13.80;67.40;13.90;97136.00;;;;5095036;28;20276;-84
2023/01/12 12:35:51;;;;;;;1.33;1.07;;;13.50;68.50;13.80;97143.00;;;;5094898;28;20203;-84
2023/01/12 12:39:13;;;;;;;1.60;0.80;;;13.10;70.80;13.60;97138.00;;;;5093764;28;20203;-84
2023/01/12 12:45:39;;;;;;;3.27;1.10;;;12.40;71.10;14.00;97129.00;;;;5092885;28;20200;-84
2023/01/12 12:48:43;;;;;;;1.50;1.00;;;12.30;72.00;14.30;97121.00;;;;5092336;28;20210;-84
2023/01/12 12:51:34;;;;;;;1.63;1.10;;;12.30;72.60;14.40;97129.00;;;;5092933;28;20681;-84
2023/01/12 12:54:24;;;;;;;5.87;1.10;;;12.40;73.00;14.40;97126.00;;;;5092861;28;20274;-85
2023/01/12 12:57:14;;;;;;;1.23;0.93;;;12.40;73.80;13.40;97118.00;;;;5080676;28;20222;-84
2023/01/12 13:00:04;;;;;;;2.63;1.30;;;12.40;73.30;12.60;97119.00;;;;5089064;28;20464;-84
2023/01/12 13:02:57;;;;;;;8.53;2.10;;;12.10;76.10;12.40;97109.00;;;;5085262;28;20224;-83
2023/01/12 13:05:49;;;;;;;3.83;2.33;;;11.70;81.00;12.30;97119.00;;;;5085021;28;20212;-84
2023/01/12 13:08:39;;;;;;;2.47;1.73;;;11.50;83.40;12.20;97118.00;;;;5084998;28;20202;-84
2023/01/12 13:11:47;;;;;;;1.67;1.20;;;11.30;83.80;11.90;97109.00;;;;5081891;28;20699;-84
2023/01/12 13:14:39;;;;;;;1.47;1.10;;;11.10;83.20;11.80;97116.00;;;;5092149;28;20214;-83
2023/01/12 13:17:43;;;;;;;1.80;1.20;;;10.90;81.40;12.00;97112.00;;;;5086238;28;20223;-85
2023/01/12 13:20:54;;;;;;;3.57;1.17;;;10.80;81.60;12.20;97110.00;;;;5086305;28;20588;-84
2023/01/12 13:23:51;;;;;;;1.30;1.20;;;10.80;81.20;12.10;97108.00;;;;5087277;28;20635;-85
2023/01/12 13:26:43;;;;;;;2.27;1.37;;;10.80;82.00;12.30;97105.00;;;;5090238;28;20225;-84
2023/01/12 13:29:42;;;;;;;3.43;1.33;;;10.80;82.10;11.90;97123.00;;;;5081366;28;20214;-83
2023/01/12 13:32:43;;;;;;;1.30;1.00;;;10.80;80.90;11.80;97113.00;;;;5092451;28;20193;-85
2023/01/12 13:36:08;;;;;;;1.97;1.50;;;10.70;81.40;12.50;97091.00;;;;5095914;28;20203;-83
2023/01/12 13:39:07;;;;;;;1.43;1.27;;;10.90;80.90;12.30;97101.00;;;;5092112;28;20643;-83
2023/01/12 13:45:02;;;;;;;0.80;0.80;;;11.30;80.30;12.20;97106.00;;;;5092945;28;20203;-83
2023/01/12 13:47:53;;;;;;;1.37;1.23;;;11.30;80.60;12.60;97105.00;;;;5093899;28;20274;-83